Time;durP1;ratioP1;P1;durP2;ratioP2;P2;SDS_P1;SDS_P2;PMS_P1;PMS_P2;Temp;Humidity;BMP_temperature;BMP_pressure;BME280_temperature;BME280_humidity;BME280_pressure;Samples;Min_cycle;Max_cycle;Signal;HPM_P1;HPM_P2
2022/10/09 00:01:56;;;;;;;4.73;2.03;;;8.80;99.90;;;;;;5241802;28;20216;-51
2022/10/09 00:04:27;;;;;;;6.67;4.20;;;8.70;99.90;;;;;;5270777;28;20417;-51
2022/10/09 00:06:57;;;;;;;5.60;2.70;;;8.70;99.90;;;;;;5276331;28;20189;-51
2022/10/09 00:09:28;;;;;;;7.77;3.13;;;8.70;99.90;;;;;;5249905;28;20588;-52
2022/10/09 00:11:58;;;;;;;5.10;2.07;;;8.70;99.90;;;;;;5266814;28;20204;-51
2022/10/09 00:14:29;;;;;;;11.80;2.47;;;8.70;99.90;;;;;;5247784;28;20251;-51
2022/10/09 00:16:59;;;;;;;5.20;2.60;;;8.60;99.90;;;;;;5250076;28;20201;-50
2022/10/09 00:19:30;;;;;;;6.43;3.37;;;8.60;99.90;;;;;;5240623;28;20185;-50
2022/10/09 00:22:00;;;;;;;8.60;2.63;;;8.60;99.90;;;;;;5223631;28;20222;-50
2022/10/09 00:24:31;;;;;;;4.87;2.13;;;8.60;99.90;;;;;;5253262;28;20208;-51
2022/10/09 00:27:02;;;;;;;2.30;1.80;;;8.50;99.90;;;;;;5250752;28;20231;-51
2022/10/09 00:29:32;;;;;;;6.80;2.87;;;8.50;99.90;;;;;;5248866;28;20199;-50
2022/10/09 00:32:03;;;;;;;2.30;1.40;;;8.50;99.90;;;;;;5251722;28;20186;-50
2022/10/09 00:34:33;;;;;;;9.07;3.30;;;8.40;99.90;;;;;;5237356;28;20553;-51
2022/10/09 00:37:04;;;;;;;4.80;2.10;;;8.40;99.90;;;;;;5245853;28;20277;-52
2022/10/09 00:39:35;;;;;;;3.73;3.00;;;8.50;99.90;;;;;;5232910;28;20225;-51
2022/10/09 00:42:05;;;;;;;7.27;2.57;;;8.40;99.90;;;;;;5263173;28;20195;-50
2022/10/09 00:44:58;;;;;;;10.63;2.43;;;8.40;99.90;;;;;;5254532;28;20378;-49
2022/10/09 00:47:37;;;;;;;5.13;2.60;;;8.40;99.90;;;;;;5247437;28;20194;-50
2022/10/09 00:50:19;;;;;;;6.70;2.70;;;8.40;99.90;;;;;;5264858;28;20459;-49
2022/10/09 00:52:56;;;;;;;3.87;1.70;;;8.40;99.90;;;;;;5262098;28;20440;-51
2022/10/09 00:55:28;;;;;;;3.93;1.67;;;8.40;99.90;;;;;;5239748;28;20440;-51
2022/10/09 00:58:00;;;;;;;10.67;2.30;;;8.40;99.90;;;;;;5266714;28;20423;-51
2022/10/09 01:00:30;;;;;;;2.60;2.20;;;8.40;99.90;;;;;;5263091;28;20444;-51
2022/10/09 01:03:01;;;;;;;2.93;2.20;;;8.40;99.90;;;;;;5257936;28;20462;-51
2022/10/09 01:06:10;;;;;;;4.30;2.00;;;8.30;99.90;;;;;;5268374;28;20181;-51
2022/10/09 01:08:59;;;;;;;7.70;2.63;;;8.30;99.90;;;;;;5269208;28;20225;-52
2022/10/09 01:11:47;;;;;;;5.80;2.47;;;8.40;99.90;;;;;;5270949;28;20826;-50
2022/10/09 01:14:31;;;;;;;4.53;2.40;;;8.30;99.90;;;;;;5260770;28;20850;-51
2022/10/09 01:17:12;;;;;;;5.10;2.80;;;8.30;99.90;;;;;;5251857;28;20442;-51
2022/10/09 01:19:46;;;;;;;6.03;2.90;;;8.30;99.90;;;;;;5260839;28;20420;-51
2022/10/09 01:22:44;;;;;;;6.83;2.13;;;8.20;99.90;;;;;;5265101;28;20436;-51
2022/10/09 01:25:25;;;;;;;4.00;2.00;;;8.20;99.90;;;;;;5251513;28;20446;-51
2022/10/09 01:27:56;;;;;;;4.60;1.93;;;8.20;99.90;;;;;;5249409;28;20452;-52
2022/10/09 01:30:28;;;;;;;7.20;2.17;;;8.20;99.90;;;;;;5247445;28;20460;-51
2022/10/09 01:32:59;;;;;;;6.27;1.83;;;8.20;99.90;;;;;;5265348;28;20198;-49
2022/10/09 01:35:30;;;;;;;4.63;2.10;;;8.10;99.90;;;;;;5271705;28;21298;-50
2022/10/09 01:38:03;;;;;;;2.73;2.00;;;8.10;99.90;;;;;;5269675;28;20542;-50
2022/10/09 01:40:35;;;;;;;5.10;1.80;;;8.10;99.90;;;;;;5239644;28;20755;-51
2022/10/09 01:43:05;;;;;;;2.77;1.97;;;8.00;99.90;;;;;;5244957;28;20985;-51
2022/10/09 01:45:38;;;;;;;4.10;1.70;;;8.10;99.90;;;;;;5263394;28;20432;-51
2022/10/09 01:48:18;;;;;;;9.60;2.10;;;8.00;99.90;;;;;;5246337;28;20189;-51
2022/10/09 01:51:00;;;;;;;4.50;2.10;;;8.00;99.90;;;;;;5241825;28;20455;-50
2022/10/09 01:53:32;;;;;;;4.73;2.17;;;8.00;99.90;;;;;;5261199;28;20443;-50
2022/10/09 01:56:15;;;;;;;4.13;1.97;;;8.00;99.90;;;;;;5251813;28;20451;-49
2022/10/09 01:59:01;;;;;;;1.50;1.50;;;8.00;99.90;;;;;;5263759;28;20896;-49
2022/10/09 02:01:36;;;;;;;6.83;2.10;;;8.00;99.90;;;;;;5248156;28;20546;-50
2022/10/09 02:04:09;;;;;;;4.57;2.47;;;8.00;99.90;;;;;;5265002;28;20470;-49
2022/10/09 02:06:41;;;;;;;5.10;1.87;;;8.00;99.90;;;;;;5263217;28;20439;-50
2022/10/09 02:09:14;;;;;;;3.97;2.40;;;8.00;99.90;;;;;;5246765;28;20931;-50
2022/10/09 02:11:50;;;;;;;7.23;3.37;;;8.00;99.90;;;;;;5263981;28;20416;-49
2022/10/09 02:14:21;;;;;;;8.23;2.50;;;7.90;99.90;;;;;;5250158;28;20473;-50
2022/10/09 02:17:02;;;;;;;11.40;3.10;;;7.90;99.90;;;;;;5251568;28;20427;-50
2022/10/09 02:19:57;;;;;;;6.43;2.30;;;7.90;99.90;;;;;;5244054;28;20218;-50
2022/10/09 02:22:30;;;;;;;7.00;2.33;;;7.90;99.90;;;;;;5250153;28;20522;-50
2022/10/09 02:25:05;;;;;;;5.47;2.17;;;7.90;99.90;;;;;;5230049;28;20464;-49
2022/10/09 02:27:35;;;;;;;5.03;2.30;;;7.90;99.90;;;;;;5241590;28;20972;-52
2022/10/09 02:30:08;;;;;;;4.53;2.10;;;7.90;99.90;;;;;;5266544;28;20458;-50
2022/10/09 02:32:38;;;;;;;8.37;2.57;;;7.80;99.90;;;;;;5261139;28;20180;-49
2022/10/09 02:35:09;;;;;;;3.63;1.90;;;7.90;99.90;;;;;;5249584;28;20424;-49
2022/10/09 02:37:40;;;;;;;13.27;2.30;;;7.90;99.90;;;;;;5250173;28;20637;-48
2022/10/09 02:40:10;;;;;;;7.40;2.17;;;7.90;99.90;;;;;;5262425;28;20496;-50
2022/10/09 02:42:41;;;;;;;5.67;2.47;;;7.90;99.90;;;;;;5261441;28;20170;-51
2022/10/09 02:45:11;;;;;;;2.10;1.90;;;7.90;99.90;;;;;;5263480;28;20185;-50
2022/10/09 02:47:42;;;;;;;3.87;2.00;;;7.90;99.90;;;;;;5249014;28;20178;-48
2022/10/09 02:50:13;;;;;;;11.30;2.60;;;7.90;99.90;;;;;;5248582;28;20676;-50
2022/10/09 02:52:43;;;;;;;10.10;2.40;;;7.80;99.90;;;;;;5251128;28;20585;-50
2022/10/09 02:55:14;;;;;;;5.40;1.80;;;7.80;99.90;;;;;;5265302;28;20224;-50
2022/10/09 02:57:44;;;;;;;6.60;2.40;;;7.80;99.90;;;;;;5239975;28;20178;-50
2022/10/09 03:00:15;;;;;;;4.43;2.50;;;7.80;99.90;;;;;;5242721;28;20212;-49
2022/10/09 03:02:45;;;;;;;7.77;1.90;;;7.80;99.90;;;;;;5263406;28;20179;-50
2022/10/09 03:05:16;;;;;;;2.70;2.20;;;7.80;99.90;;;;;;5256705;28;20196;-51
2022/10/09 03:07:50;;;;;;;4.17;1.60;;;7.80;99.90;;;;;;5249269;28;20665;-50
2022/10/09 03:10:21;;;;;;;15.50;2.60;;;7.80;99.90;;;;;;5233392;28;20662;-49
2022/10/09 03:12:52;;;;;;;7.00;2.20;;;7.70;99.90;;;;;;5247576;28;20432;-50
2022/10/09 03:15:22;;;;;;;12.40;2.20;;;7.70;99.90;;;;;;5262670;28;20447;-49
2022/10/09 03:17:53;;;;;;;4.47;1.70;;;7.70;99.90;;;;;;5233187;28;20201;-50
2022/10/09 03:20:23;;;;;;;4.47;1.90;;;7.70;99.90;;;;;;5250913;28;20226;-49
2022/10/09 03:22:55;;;;;;;16.63;2.43;;;7.70;99.90;;;;;;5250354;28;20287;-50
2022/10/09 03:25:25;;;;;;;5.27;2.40;;;7.70;99.90;;;;;;5267187;28;20189;-51
2022/10/09 03:27:56;;;;;;;3.63;1.87;;;7.70;99.90;;;;;;5246784;28;20458;-51
2022/10/09 03:30:27;;;;;;;9.23;2.90;;;7.70;99.90;;;;;;5258562;28;20194;-50
2022/10/09 03:32:58;;;;;;;7.43;2.43;;;7.70;99.90;;;;;;5264836;28;20447;-51
2022/10/09 03:35:28;;;;;;;6.73;2.03;;;7.60;99.90;;;;;;5257009;28;20189;-49
2022/10/09 03:37:59;;;;;;;4.50;2.10;;;7.60;99.90;;;;;;5267835;28;20196;-49
2022/10/09 03:40:29;;;;;;;5.00;1.90;;;7.60;99.90;;;;;;5262104;28;20241;-50
2022/10/09 03:45:39;;;;;;;6.67;3.10;;;7.50;99.90;;;;;;5283603;28;20220;-48
2022/10/09 03:48:11;;;;;;;6.80;2.17;;;7.50;99.90;;;;;;5262384;28;20402;-47
2022/10/09 03:50:41;;;;;;;6.37;2.33;;;7.50;99.90;;;;;;5294411;28;20450;-47
2022/10/09 03:53:13;;;;;;;8.50;2.93;;;7.50;99.90;;;;;;5288750;28;20793;-47
2022/10/09 03:55:43;;;;;;;7.93;2.50;;;7.50;99.90;;;;;;5239458;28;20190;-48
2022/10/09 03:58:14;;;;;;;4.53;1.40;;;7.50;99.90;;;;;;5287296;28;20964;-47
2022/10/09 04:00:45;;;;;;;12.10;4.10;;;7.50;99.90;;;;;;5270376;28;20182;-48
2022/10/09 04:03:15;;;;;;;23.90;2.13;;;7.50;99.90;;;;;;5272378;28;20271;-48
2022/10/09 04:05:46;;;;;;;11.37;2.50;;;7.40;99.90;;;;;;5268048;28;20423;-49
2022/10/09 04:08:17;;;;;;;7.03;2.90;;;7.40;99.90;;;;;;5256798;28;20185;-51
2022/10/09 04:10:47;;;;;;;17.00;2.70;;;7.40;99.90;;;;;;5277198;28;20236;-49
2022/10/09 04:13:18;;;;;;;2.13;1.77;;;7.40;99.90;;;;;;5274430;27;20198;-48
2022/10/09 04:15:50;;;;;;;8.67;2.30;;;7.40;99.90;;;;;;5277195;28;20235;-48
2022/10/09 04:18:21;;;;;;;7.20;2.27;;;7.40;99.90;;;;;;5272825;28;20181;-48
2022/10/09 04:20:54;;;;;;;6.53;2.77;;;7.40;99.90;;;;;;5263457;28;20419;-50
2022/10/09 04:23:26;;;;;;;5.57;2.17;;;7.40;99.90;;;;;;5271926;28;20459;-48
2022/10/09 04:25:58;;;;;;;5.10;2.20;;;7.30;99.90;;;;;;5272234;27;20440;-48
2022/10/09 04:28:30;;;;;;;5.80;2.20;;;7.30;99.90;;;;;;5278096;27;20440;-47
2022/10/09 04:31:01;;;;;;;4.40;2.10;;;7.30;99.90;;;;;;5273510;27;20609;-51
2022/10/09 04:33:34;;;;;;;12.57;2.73;;;7.30;99.90;;;;;;5276085;27;20881;-51
2022/10/09 04:36:05;;;;;;;3.30;1.93;;;7.30;99.90;;;;;;5266857;28;20276;-49
2022/10/09 04:38:35;;;;;;;4.60;2.20;;;7.30;99.90;;;;;;5272424;27;20539;-48
2022/10/09 04:41:06;;;;;;;5.30;1.80;;;7.30;99.90;;;;;;5261667;28;20177;-48
2022/10/09 04:43:37;;;;;;;9.00;2.03;;;7.30;99.90;;;;;;5280110;27;20573;-50
2022/10/09 04:46:11;;;;;;;8.13;2.50;;;7.30;99.90;;;;;;5285195;28;20439;-49
2022/10/09 04:48:43;;;;;;;9.90;2.37;;;7.20;99.90;;;;;;5249318;27;20186;-51
2022/10/09 04:51:16;;;;;;;7.60;2.97;;;7.20;99.90;;;;;;5270932;28;20459;-52
2022/10/09 04:53:46;;;;;;;7.10;2.63;;;7.20;99.90;;;;;;5280132;27;20475;-47
2022/10/09 04:56:19;;;;;;;5.33;2.50;;;7.20;99.90;;;;;;5272685;27;20827;-49
2022/10/09 04:58:49;;;;;;;4.20;2.37;;;7.30;99.90;;;;;;5287756;28;20174;-48
2022/10/09 05:01:23;;;;;;;3.83;2.20;;;7.30;99.90;;;;;;5282434;28;20446;-54
2022/10/09 05:03:55;;;;;;;5.77;2.30;;;7.20;99.90;;;;;;5281733;28;20262;-50
2022/10/09 05:06:25;;;;;;;4.97;2.30;;;7.20;99.90;;;;;;5288022;27;20930;-48
2022/10/09 05:08:56;;;;;;;5.00;2.00;;;7.20;99.90;;;;;;5270680;28;20427;-51
2022/10/09 05:11:26;;;;;;;4.20;2.13;;;7.20;99.90;;;;;;5283487;28;20280;-51
2022/10/09 05:13:57;;;;;;;4.50;2.77;;;7.10;99.90;;;;;;5280700;28;20212;-51
2022/10/09 05:16:30;;;;;;;9.80;2.80;;;7.10;99.90;;;;;;5282136;27;20186;-50
2022/10/09 05:19:01;;;;;;;11.17;4.23;;;7.20;99.90;;;;;;5286233;28;20272;-50
2022/10/09 05:21:32;;;;;;;2.57;2.10;;;7.10;99.90;;;;;;5283810;28;20921;-52
2022/10/09 05:24:03;;;;;;;4.43;2.40;;;7.10;99.90;;;;;;5271597;28;20489;-51
2022/10/09 05:26:33;;;;;;;3.67;2.33;;;7.20;99.90;;;;;;5286130;28;20547;-49
2022/10/09 05:29:04;;;;;;;7.77;2.67;;;7.20;99.90;;;;;;5272845;28;20192;-51
2022/10/09 05:31:34;;;;;;;6.00;2.37;;;7.20;99.90;;;;;;5283522;27;20273;-52
2022/10/09 05:34:05;;;;;;;10.60;2.87;;;7.20;99.90;;;;;;5285391;27;20292;-51
2022/10/09 05:36:35;;;;;;;5.20;2.23;;;7.20;99.90;;;;;;5269777;28;20644;-51
2022/10/09 05:39:06;;;;;;;5.00;2.53;;;7.30;99.90;;;;;;5277762;28;20185;-51
2022/10/09 05:41:36;;;;;;;6.87;2.50;;;7.30;99.90;;;;;;5289662;27;20201;-49
2022/10/09 05:44:10;;;;;;;6.87;2.53;;;7.30;99.90;;;;;;5272108;28;20208;-49
2022/10/09 05:46:41;;;;;;;4.30;2.50;;;7.30;99.90;;;;;;5285048;28;20180;-51
2022/10/09 05:49:11;;;;;;;11.90;2.60;;;7.40;99.90;;;;;;5272114;28;20431;-52
2022/10/09 05:51:42;;;;;;;56.70;21.37;;;7.40;99.90;;;;;;5287239;28;20259;-50
2022/10/09 05:54:15;;;;;;;13.53;7.27;;;7.40;99.90;;;;;;5261362;28;20201;-50
2022/10/09 05:56:45;;;;;;;4.40;3.10;;;7.50;99.90;;;;;;5278687;28;20189;-51
2022/10/09 05:59:18;;;;;;;3.97;2.60;;;7.60;99.90;;;;;;5264622;28;20505;-49
2022/10/09 06:01:50;;;;;;;7.13;3.43;;;7.70;99.90;;;;;;5289237;28;20224;-50
2022/10/09 06:04:23;;;;;;;9.63;2.97;;;7.70;99.90;;;;;;5262288;28;20541;-49
2022/10/09 06:06:53;;;;;;;7.33;3.57;;;7.70;99.90;;;;;;5288454;28;20430;-49
2022/10/09 06:09:24;;;;;;;10.77;3.20;;;7.80;99.90;;;;;;5284423;28;20433;-49
2022/10/09 06:11:55;;;;;;;9.43;3.57;;;7.90;99.90;;;;;;5286650;28;20183;-51
2022/10/09 06:14:26;;;;;;;11.53;3.17;;;8.00;99.90;;;;;;5277071;28;20451;-51
2022/10/09 06:16:57;;;;;;;4.40;2.70;;;8.10;99.90;;;;;;5267430;28;20264;-51
2022/10/09 06:19:28;;;;;;;4.40;2.70;;;8.30;99.90;;;;;;5271294;28;20185;-50
2022/10/09 06:21:58;;;;;;;8.30;2.47;;;8.70;99.90;;;;;;5286929;27;20492;-51
2022/10/09 06:24:29;;;;;;;4.33;2.33;;;10.10;99.90;;;;;;5288128;28;20254;-52
2022/10/09 06:26:59;;;;;;;3.77;2.20;;;12.30;99.90;;;;;;5272239;28;20551;-51
2022/10/09 06:29:30;;;;;;;5.03;1.70;;;14.40;99.90;;;;;;5271411;28;20181;-51
2022/10/09 06:32:01;;;;;;;7.73;2.73;;;16.10;99.90;;;;;;5277805;27;20186;-51
2022/10/09 06:34:31;;;;;;;3.77;1.93;;;17.50;99.90;;;;;;5271277;28;20265;-52
2022/10/09 06:37:02;;;;;;;10.70;2.53;;;18.60;92.10;;;;;;5287554;28;20189;-50
2022/10/09 06:39:32;;;;;;;7.00;2.30;;;19.50;80.20;;;;;;5271512;28;20185;-49
2022/10/09 06:42:03;;;;;;;5.03;2.07;;;20.20;70.40;;;;;;5285211;28;20178;-49
2022/10/09 06:44:35;;;;;;;4.53;2.13;;;20.90;65.10;;;;;;5262165;28;20224;-50
2022/10/09 06:47:06;;;;;;;8.53;2.40;;;21.40;57.80;;;;;;5267006;28;20962;-51
2022/10/09 06:49:36;;;;;;;4.40;2.20;;;21.60;58.50;;;;;;5286143;28;20290;-51
2022/10/09 06:52:07;;;;;;;4.00;2.40;;;21.90;56.70;;;;;;5267258;28;20189;-50
2022/10/09 06:54:37;;;;;;;5.10;2.17;;;22.20;54.60;;;;;;5280422;28;20207;-51
2022/10/09 06:57:08;;;;;;;4.63;1.90;;;22.20;53.90;;;;;;5288685;28;20179;-51
2022/10/09 06:59:38;;;;;;;9.30;3.20;;;22.10;53.50;;;;;;5287762;28;20267;-54
2022/10/09 07:02:09;;;;;;;6.07;2.23;;;22.00;53.30;;;;;;5270475;28;20219;-51
2022/10/09 07:04:39;;;;;;;8.03;2.23;;;22.00;52.90;;;;;;5278892;28;20274;-50
2022/10/09 07:07:10;;;;;;;4.60;2.50;;;21.60;53.00;;;;;;5282094;28;20186;-50
2022/10/09 07:09:40;;;;;;;6.60;2.63;;;21.90;53.10;;;;;;5270030;28;20224;-50
2022/10/09 07:12:11;;;;;;;10.80;2.80;;;22.50;53.00;;;;;;5287030;28;20596;-51
2022/10/09 07:14:42;;;;;;;4.77;2.20;;;22.70;50.30;;;;;;5267347;28;20625;-50
2022/10/09 07:17:12;;;;;;;5.47;1.80;;;23.10;50.40;;;;;;5270355;28;20191;-51
2022/10/09 07:19:43;;;;;;;13.30;3.50;;;23.10;49.50;;;;;;5267819;28;20174;-50
2022/10/09 07:22:13;;;;;;;3.77;2.40;;;23.20;49.70;;;;;;5270846;28;20280;-50
2022/10/09 07:24:44;;;;;;;7.73;3.10;;;23.40;48.60;;;;;;5287298;28;20209;-50
2022/10/09 07:27:14;;;;;;;2.10;1.53;;;23.60;47.80;;;;;;5275652;28;20224;-50
2022/10/09 07:29:45;;;;;;;2.00;1.80;;;23.50;48.90;;;;;;5279560;28;20212;-49
2022/10/09 07:32:16;;;;;;;5.60;2.23;;;23.10;49.20;;;;;;5292137;28;20691;-47
2022/10/09 07:34:46;;;;;;;3.03;2.43;;;21.80;50.80;;;;;;5285554;28;20255;-49
2022/10/09 07:37:17;;;;;;;17.73;2.33;;;19.90;54.00;;;;;;5274078;28;20182;-47
2022/10/09 07:39:47;;;;;;;5.93;2.40;;;18.20;57.50;;;;;;5289684;27;20196;-48
2022/10/09 07:42:18;;;;;;;7.87;3.00;;;16.90;61.30;;;;;;5274761;28;20192;-50
2022/10/09 07:44:48;;;;;;;4.20;2.73;;;15.80;65.80;;;;;;5275388;28;20216;-48
2022/10/09 07:47:19;;;;;;;3.83;1.70;;;15.00;71.40;;;;;;5282187;28;20182;-47
2022/10/09 07:49:49;;;;;;;5.60;2.60;;;14.30;79.20;;;;;;5257710;28;20220;-48
2022/10/09 07:52:20;;;;;;;5.07;2.60;;;13.70;91.30;;;;;;5285843;28;20186;-48
2022/10/09 07:54:50;;;;;;;7.83;2.60;;;13.40;97.00;;;;;;5290698;27;20686;-49
2022/10/09 07:57:21;;;;;;;6.20;3.03;;;13.20;99.90;;;;;;5289395;28;20739;-48
2022/10/09 07:59:52;;;;;;;8.97;2.70;;;12.90;99.90;;;;;;5279978;27;20264;-50
2022/10/09 08:02:22;;;;;;;11.33;2.53;;;12.70;99.90;;;;;;5281615;27;20223;-49
2022/10/09 08:04:53;;;;;;;2.73;2.37;;;12.60;99.90;;;;;;5281634;27;20212;-48
2022/10/09 08:07:23;;;;;;;12.90;2.40;;;12.50;99.90;;;;;;5290088;28;20183;-50
2022/10/09 08:09:54;;;;;;;5.63;3.40;;;12.50;99.90;;;;;;5291959;28;20199;-50
2022/10/09 08:12:25;;;;;;;16.37;2.90;;;12.50;99.90;;;;;;5290877;28;20211;-51
2022/10/09 08:14:56;;;;;;;5.60;2.97;;;12.40;99.90;;;;;;5273432;28;20193;-53
2022/10/09 08:17:26;;;;;;;5.33;2.93;;;12.30;99.90;;;;;;5282404;28;20838;-49
2022/10/09 08:19:57;;;;;;;7.70;2.37;;;12.30;99.90;;;;;;5271726;28;20186;-50
2022/10/09 08:22:27;;;;;;;3.90;2.60;;;12.10;99.90;;;;;;5288205;28;20548;-52
2022/10/09 08:24:58;;;;;;;6.23;2.30;;;12.10;99.90;;;;;;5272284;28;20257;-49
2022/10/09 08:27:29;;;;;;;6.30;2.30;;;12.10;99.90;;;;;;5281536;28;20656;-49
2022/10/09 08:29:59;;;;;;;8.00;2.70;;;12.10;99.90;;;;;;5273032;28;20200;-50
2022/10/09 08:32:30;;;;;;;9.80;2.77;;;12.10;99.90;;;;;;5272972;28;20181;-49
2022/10/09 08:35:00;;;;;;;8.80;3.20;;;12.10;99.90;;;;;;5272524;28;20599;-50
2022/10/09 08:37:31;;;;;;;4.97;2.43;;;12.20;99.90;;;;;;5269835;28;20207;-49
2022/10/09 08:40:03;;;;;;;8.83;3.10;;;12.30;99.90;;;;;;5287053;27;20191;-51
2022/10/09 08:43:04;;;;;;;4.03;2.90;;;12.40;99.90;;;;;;5284994;28;20183;-50
2022/10/09 08:45:39;;;;;;;14.50;3.30;;;12.50;99.90;;;;;;5261937;28;20457;-53
2022/10/09 08:48:18;;;;;;;7.40;3.10;;;12.60;99.90;;;;;;5273222;28;20426;-51
2022/10/09 08:50:52;;;;;;;2.70;2.30;;;12.70;99.90;;;;;;5270866;28;20459;-49
2022/10/09 08:53:41;;;;;;;7.27;3.10;;;12.70;99.90;;;;;;5287877;28;20442;-52
2022/10/09 08:56:14;;;;;;;5.67;2.50;;;12.80;99.90;;;;;;5270594;28;20441;-50
2022/10/09 08:58:44;;;;;;;6.63;2.80;;;13.00;99.90;;;;;;5271923;28;20834;-50
2022/10/09 09:01:30;;;;;;;6.50;3.10;;;13.10;99.90;;;;;;5287988;27;20438;-51
2022/10/09 09:04:34;;;;;;;4.67;2.30;;;13.20;99.90;;;;;;5281676;27;20280;-51
2022/10/09 09:07:12;;;;;;;7.63;3.70;;;13.20;99.90;;;;;;5266997;28;20462;-51
2022/10/09 09:10:09;;;;;;;10.50;3.03;;;13.40;99.90;;;;;;5259757;28;20519;-51
2022/10/09 09:12:58;;;;;;;14.60;1.90;;;13.30;99.90;;;;;;5261115;28;20835;-50
2022/10/09 09:15:49;;;;;;;6.93;2.20;;;13.20;99.90;;;;;;5271534;28;20778;-50
2022/10/09 09:18:32;;;;;;;12.07;3.10;;;13.30;99.90;;;;;;5271335;28;20476;-50
2022/10/09 09:21:41;;;;;;;4.20;2.20;;;13.40;99.90;;;;;;5270960;28;20434;-50
2022/10/09 09:24:16;;;;;;;9.57;2.40;;;13.50;99.90;;;;;;5279414;28;20503;-52
2022/10/09 09:26:50;;;;;;;4.13;2.10;;;13.50;99.90;;;;;;5278886;28;20453;-50
2022/10/09 09:29:22;;;;;;;16.93;2.73;;;13.60;99.90;;;;;;5284295;27;20513;-52
2022/10/09 09:31:58;;;;;;;4.83;1.73;;;13.70;99.90;;;;;;5280897;28;20446;-50
2022/10/09 09:34:37;;;;;;;6.43;1.80;;;13.80;99.90;;;;;;5265034;27;20551;-51
2022/10/09 09:37:10;;;;;;;5.17;2.47;;;13.90;99.90;;;;;;5289083;27;20433;-51
2022/10/09 09:39:42;;;;;;;8.70;2.50;;;13.90;99.90;;;;;;5278046;28;20431;-52
2022/10/09 09:42:16;;;;;;;9.40;3.10;;;14.10;99.90;;;;;;5261185;28;20430;-51
2022/10/09 09:45:05;;;;;;;10.60;2.77;;;14.00;99.90;;;;;;5300392;22;20569;-50
2022/10/09 09:47:46;;;;;;;7.60;2.40;;;14.10;99.90;;;;;;5278462;27;20446;-49
2022/10/09 09:50:38;;;;;;;14.87;2.97;;;14.00;99.90;;;;;;5249895;28;20597;-51
2022/10/09 09:53:25;;;;;;;7.90;2.33;;;14.10;99.90;;;;;;5287783;27;20434;-51
2022/10/09 09:55:56;;;;;;;5.17;2.17;;;14.20;99.90;;;;;;5255291;28;20431;-51
2022/10/09 09:58:37;;;;;;;12.87;2.00;;;14.30;99.90;;;;;;5241902;28;20442;-51
2022/10/09 10:01:18;;;;;;;4.90;1.83;;;14.20;99.90;;;;;;5247270;28;20420;-50
2022/10/09 10:03:52;;;;;;;12.63;2.10;;;14.30;99.90;;;;;;5270844;28;20491;-51
2022/10/09 10:06:31;;;;;;;11.00;1.83;;;14.40;99.90;;;;;;5250888;28;20420;-51
2022/10/09 10:09:16;;;;;;;12.13;2.93;;;14.60;99.90;;;;;;5264559;28;21004;-51
2022/10/09 10:11:57;;;;;;;6.83;3.00;;;14.50;99.90;;;;;;5264257;28;20460;-52
2022/10/09 10:14:29;;;;;;;3.33;1.93;;;14.60;99.90;;;;;;5260272;28;20820;-52
2022/10/09 10:17:00;;;;;;;5.33;2.20;;;14.60;99.90;;;;;;5256299;28;20419;-51
2022/10/09 10:19:34;;;;;;;5.03;2.10;;;14.70;99.90;;;;;;5261863;28;20443;-51
2022/10/09 10:22:20;;;;;;;4.57;1.60;;;14.70;99.90;;;;;;5240626;28;20509;-51
2022/10/09 10:24:53;;;;;;;4.27;1.30;;;14.80;99.90;;;;;;5243401;28;20447;-50
2022/10/09 10:27:35;;;;;;;4.97;1.80;;;14.80;99.90;;;;;;5261370;28;20426;-51
2022/10/09 10:30:11;;;;;;;4.33;1.30;;;14.80;99.90;;;;;;5258695;28;20464;-50
2022/10/09 10:33:04;;;;;;;4.37;2.50;;;14.90;99.90;;;;;;5260908;28;20435;-50
2022/10/09 10:35:38;;;;;;;8.70;3.40;;;15.10;99.90;;;;;;5241826;28;20464;-50
2022/10/09 10:38:45;;;;;;;2.67;1.73;;;15.30;99.90;;;;;;5243760;28;21000;-51
2022/10/09 10:41:38;;;;;;;9.13;2.33;;;15.60;99.90;;;;;;5260140;28;20522;-52
2022/10/09 10:44:20;;;;;;;3.37;1.50;;;15.40;99.90;;;;;;5239484;28;20475;-50
2022/10/09 10:47:01;;;;;;;4.63;1.60;;;15.30;99.90;;;;;;5244589;28;20444;-50
2022/10/09 10:49:32;;;;;;;3.00;1.30;;;15.40;99.90;;;;;;5242859;28;20473;-51
2022/10/09 10:52:25;;;;;;;7.90;2.63;;;15.40;99.90;;;;;;5270088;28;20755;-51
2022/10/09 10:55:30;;;;;;;6.07;1.80;;;15.70;99.70;;;;;;5263415;28;20451;-50
2022/10/09 10:58:24;;;;;;;3.77;1.50;;;15.60;99.60;;;;;;5243700;28;20514;-51
2022/10/09 11:01:11;;;;;;;13.87;1.90;;;15.70;98.20;;;;;;5229212;28;20440;-50
2022/10/09 11:03:52;;;;;;;7.00;1.90;;;15.80;98.70;;;;;;5258607;28;20500;-51
2022/10/09 11:06:51;;;;;;;2.93;1.17;;;15.80;97.40;;;;;;5253197;28;20484;-51
2022/10/09 11:09:49;;;;;;;3.20;1.80;;;15.80;97.00;;;;;;5263131;28;20515;-51
2022/10/09 11:12:37;;;;;;;4.77;2.10;;;15.90;96.40;;;;;;5263932;28;20428;-51
2022/10/09 11:15:29;;;;;;;7.07;2.20;;;15.90;96.30;;;;;;5264166;28;20441;-52
2022/10/09 11:18:25;;;;;;;3.90;2.13;;;15.80;96.00;;;;;;5265925;28;20459;-54
2022/10/09 11:21:23;;;;;;;4.23;1.80;;;15.80;96.60;;;;;;5265132;28;20459;-52
2022/10/09 11:24:37;;;;;;;6.20;2.07;;;15.90;94.50;;;;;;5262335;28;20467;-50
2022/10/09 11:27:25;;;;;;;2.20;1.53;;;16.10;94.40;;;;;;5243722;28;20855;-49
2022/10/09 11:30:03;;;;;;;2.47;1.47;;;16.30;90.70;;;;;;5264200;28;20462;-52
2022/10/09 11:33:17;;;;;;;7.03;1.77;;;16.30;88.90;;;;;;5250399;28;20943;-50
2022/10/09 11:36:09;;;;;;;7.07;1.30;;;16.40;88.70;;;;;;5263096;28;20439;-51
2022/10/09 11:38:49;;;;;;;4.10;1.70;;;16.50;84.80;;;;;;5245417;28;20433;-51
2022/10/09 11:41:20;;;;;;;8.47;2.60;;;16.50;84.70;;;;;;5266459;28;20431;-51
2022/10/09 11:44:15;;;;;;;6.30;1.70;;;16.50;85.60;;;;;;5270630;28;20467;-50
2022/10/09 11:47:04;;;;;;;3.83;1.47;;;16.50;82.90;;;;;;5260729;28;20190;-52
2022/10/09 11:49:49;;;;;;;8.17;2.23;;;16.50;83.80;;;;;;5263506;28;20749;-51
2022/10/09 11:52:47;;;;;;;8.30;1.33;;;16.60;81.80;;;;;;5260162;28;20455;-51
2022/10/09 11:55:24;;;;;;;5.33;1.53;;;16.50;81.90;;;;;;5255178;28;20447;-52
2022/10/09 11:58:06;;;;;;;4.40;1.43;;;16.50;81.30;;;;;;5271792;28;20438;-52
2022/10/09 12:00:37;;;;;;;3.93;1.87;;;16.60;80.60;;;;;;5259222;28;20934;-53
2022/10/09 12:03:35;;;;;;;4.13;1.43;;;16.60;81.60;;;;;;5249249;28;20451;-52
2022/10/09 12:06:16;;;;;;;4.20;2.23;;;16.30;83.20;;;;;;5259953;28;20186;-52
2022/10/09 12:08:57;;;;;;;2.10;1.90;;;16.00;83.90;;;;;;5260639;28;20442;-51
2022/10/09 12:11:28;;;;;;;6.90;2.90;;;15.80;85.80;;;;;;5242584;28;20467;-51
2022/10/09 12:14:07;;;;;;;3.27;1.73;;;15.80;86.60;;;;;;5263555;28;20467;-52
2022/10/09 12:16:43;;;;;;;5.07;1.67;;;15.80;82.20;;;;;;5256838;28;20443;-51
2022/10/09 12:19:27;;;;;;;13.03;2.13;;;15.70;81.30;;;;;;5266236;28;20848;-51
2022/10/09 12:22:11;;;;;;;4.33;1.93;;;15.70;82.40;;;;;;5252750;28;20439;-52
2022/10/09 12:24:46;;;;;;;2.10;1.10;;;16.10;81.90;;;;;;5267575;28;20833;-49
2022/10/09 12:27:24;;;;;;;3.20;1.70;;;16.20;78.80;;;;;;5261462;28;20452;-51
2022/10/09 12:30:20;;;;;;;1.90;1.60;;;16.10;79.30;;;;;;5246575;28;20462;-53
2022/10/09 12:33:19;;;;;;;14.03;2.00;;;16.10;80.20;;;;;;5268575;28;20870;-51
2022/10/09 12:36:14;;;;;;;9.83;1.97;;;16.10;80.40;;;;;;5264839;28;20952;-51
2022/10/09 12:38:45;;;;;;;1.77;1.67;;;16.20;80.40;;;;;;5243305;28;20435;-49
2022/10/09 12:41:22;;;;;;;2.93;1.30;;;16.30;81.30;;;;;;5269844;28;20451;-51
2022/10/09 12:43:54;;;;;;;8.63;2.47;;;16.30;79.90;;;;;;5249527;28;20803;-51
2022/10/09 12:46:37;;;;;;;1.43;1.17;;;16.30;78.90;;;;;;5262305;28;20522;-50
2022/10/09 12:49:18;;;;;;;5.40;2.40;;;16.40;79.40;;;;;;5265411;28;20432;-50
2022/10/09 12:51:55;;;;;;;9.33;2.17;;;16.40;77.80;;;;;;5258990;28;20466;-51
2022/10/09 12:54:28;;;;;;;6.73;1.93;;;16.40;74.40;;;;;;5257234;28;20919;-53
2022/10/09 12:57:00;;;;;;;4.87;1.70;;;16.10;74.40;;;;;;5257014;28;20939;-51
2022/10/09 12:59:32;;;;;;;5.03;1.40;;;16.10;77.00;;;;;;5282539;28;20519;-50
2022/10/09 13:02:02;;;;;;;9.87;2.07;;;15.90;76.50;;;;;;5257249;28;20443;-50
2022/10/09 13:04:33;;;;;;;4.50;1.80;;;15.70;77.00;;;;;;5257549;28;20461;-49
2022/10/09 13:07:20;;;;;;;4.73;1.40;;;15.70;78.80;;;;;;5267064;28;20220;-50
2022/10/09 13:10:01;;;;;;;0.83;0.83;;;15.60;78.20;;;;;;5245425;28;20220;-51
2022/10/09 13:12:33;;;;;;;2.63;0.73;;;15.60;78.50;;;;;;5258186;28;20942;-51
2022/10/09 13:15:25;;;;;;;5.43;1.70;;;15.40;79.30;;;;;;5252083;28;20455;-50
2022/10/09 13:17:56;;;;;;;5.10;2.10;;;15.20;80.70;;;;;;5243502;28;20528;-51
2022/10/09 13:20:30;;;;;;;7.80;1.80;;;15.20;82.10;;;;;;5271342;28;20572;-50
2022/10/09 13:23:03;;;;;;;2.77;1.57;;;15.10;81.40;;;;;;5270676;28;20280;-53
2022/10/09 13:25:40;;;;;;;10.07;1.30;;;15.10;80.20;;;;;;5270595;28;20901;-51
2022/10/09 13:28:18;;;;;;;14.43;2.53;;;15.30;79.30;;;;;;5272249;28;20867;-51
2022/10/09 13:30:50;;;;;;;2.33;1.80;;;15.50;78.60;;;;;;5264756;28;20455;-50
2022/10/09 13:33:20;;;;;;;3.03;1.67;;;15.50;77.70;;;;;;5268555;28;20806;-50
2022/10/09 13:35:51;;;;;;;7.53;1.67;;;15.70;76.90;;;;;;5268182;28;20432;-51
2022/10/09 13:38:22;;;;;;;6.60;1.90;;;15.80;77.00;;;;;;5250366;28;20189;-51